Time;durP1;ratioP1;P1;durP2;ratioP2;P2;SDS_P1;SDS_P2;PMS_P1;PMS_P2;Temp;Humidity;BMP_temperature;BMP_pressure;BME280_temperature;BME280_humidity;BME280_pressure;Samples;Min_cycle;Max_cycle;Signal;HPM_P1;HPM_P2
2022/09/12 00:04:27;;;;;;;10.48;9.38;;;25.40;60.80;;;;;;4817216;54;21059;-34
2022/09/12 00:09:31;;;;;;;10.50;9.20;;;25.40;60.80;;;;;;4838747;54;21048;-26
2022/09/12 00:14:32;;;;;;;12.15;9.52;;;25.40;60.80;;;;;;4814639;54;21581;-34
2022/09/12 00:19:33;;;;;;;11.82;9.85;;;25.40;60.80;;;;;;4812291;54;21099;-29
2022/09/12 00:24:33;;;;;;;13.00;9.55;;;25.40;60.80;;;;;;4808213;54;21047;-37
2022/09/12 00:29:34;;;;;;;10.50;8.77;;;25.40;60.80;;;;;;4813135;54;22116;-36
2022/09/12 00:34:35;;;;;;;11.18;8.77;;;25.40;60.80;;;;;;4837769;54;21517;-34
2022/09/12 00:39:36;;;;;;;10.52;8.68;;;25.40;60.80;;;;;;4835093;54;21277;-35
2022/09/12 00:44:45;;;;;;;11.30;9.07;;;25.40;60.80;;;;;;4800331;54;21060;-33
2022/09/12 00:50:09;;;;;;;12.00;9.18;;;25.40;60.80;;;;;;4830498;54;21007;-33
2022/09/12 00:55:27;;;;;;;10.98;8.68;;;25.40;60.80;;;;;;4801713;54;21150;-24
2022/09/12 01:00:28;;;;;;;9.85;8.35;;;25.40;60.80;;;;;;4829290;54;20999;-37
2022/09/12 01:05:32;;;;;;;12.13;8.73;;;25.30;60.80;;;;;;4803898;54;20999;-37
2022/09/12 01:10:38;;;;;;;9.23;8.23;;;25.40;60.80;;;;;;4810676;54;21004;-25
2022/09/12 01:15:40;;;;;;;8.33;7.53;;;25.30;60.80;;;;;;4815457;54;21025;-31
2022/09/12 01:20:59;;;;;;;8.88;7.97;;;25.30;60.80;;;;;;4801221;54;21004;-26
2022/09/12 01:26:45;;;;;;;9.02;8.13;;;25.30;60.80;;;;;;4822905;54;21439;-32
2022/09/12 01:33:29;;;;;;;9.00;7.80;;;25.30;60.80;;;;;;4827616;54;21007;-26
2022/09/12 01:40:07;;;;;;;9.88;7.75;;;25.30;60.90;;;;;;4828510;54;20980;-26
2022/09/12 01:45:29;;;;;;;9.18;8.10;;;25.30;60.80;;;;;;4796007;54;21569;-37
2022/09/12 01:50:34;;;;;;;8.80;7.37;;;25.30;60.80;;;;;;4813999;54;21035;-37
2022/09/12 01:55:59;;;;;;;8.73;7.20;;;25.30;60.90;;;;;;4813705;54;21280;-27
2022/09/12 02:02:55;;;;;;;8.57;7.60;;;25.30;60.90;;;;;;4795443;58;21012;-35
2022/09/12 02:08:12;;;;;;;7.80;7.00;;;25.30;60.90;;;;;;4816947;54;21502;-34
2022/09/12 02:13:20;;;;;;;9.70;7.32;;;25.30;60.90;;;;;;4840658;54;21084;-35
2022/09/12 02:18:26;;;;;;;8.27;7.37;;;25.30;60.80;;;;;;4820801;54;21055;-31
2022/09/12 02:23:30;;;;;;;8.13;7.30;;;25.30;60.90;;;;;;4823422;54;21928;-34
2022/09/12 02:28:34;;;;;;;7.68;6.65;;;25.30;60.90;;;;;;4869959;54;21075;-29
2022/09/12 02:33:48;;;;;;;8.57;6.95;;;25.30;60.90;;;;;;4815457;54;21028;-33
2022/09/12 02:38:49;;;;;;;9.25;7.00;;;25.30;60.90;;;;;;4806920;54;21562;-30
2022/09/12 02:43:51;;;;;;;7.32;6.53;;;25.30;60.80;;;;;;4796034;54;21020;-36
2022/09/12 02:48:53;;;;;;;7.95;7.10;;;25.30;60.80;;;;;;4858878;54;21613;-37
2022/09/12 02:53:54;;;;;;;8.48;6.70;;;25.30;60.80;;;;;;4829111;54;21660;-31
2022/09/12 02:59:00;;;;;;;8.90;7.10;;;25.30;60.80;;;;;;4799947;54;21558;-36
2022/09/12 03:04:45;;;;;;;7.80;6.85;;;25.30;60.90;;;;;;4823325;54;21026;-34
2022/09/12 03:13:10;;;;;;;7.80;6.65;;;25.30;60.80;;;;;;4855213;54;21019;-33
2022/09/12 03:20:00;;;;;;;7.82;6.40;;;25.30;60.70;;;;;;4820645;54;21091;-29
2022/09/12 03:25:43;;;;;;;7.85;6.82;;;25.30;60.70;;;;;;4831650;54;20980;-34
2022/09/12 03:30:46;;;;;;;8.52;7.22;;;25.30;60.70;;;;;;4837393;54;21079;-35
2022/09/12 03:35:48;;;;;;;7.07;6.35;;;25.30;60.70;;;;;;4838530;54;20996;-30
2022/09/12 03:40:50;;;;;;;7.70;6.90;;;25.30;60.60;;;;;;4877463;54;21035;-29
2022/09/12 03:45:52;;;;;;;8.50;7.25;;;25.30;60.60;;;;;;4811609;54;21076;-28
2022/09/12 03:50:53;;;;;;;7.60;6.80;;;25.30;60.60;;;;;;4799900;54;21539;-36
2022/09/12 03:55:53;;;;;;;7.95;6.85;;;25.30;60.60;;;;;;4850074;54;21035;-28
2022/09/12 04:00:54;;;;;;;10.40;7.97;;;25.30;60.50;;;;;;4831418;54;21027;-32
2022/09/12 04:05:57;;;;;;;10.15;7.45;;;25.30;60.30;;;;;;4811655;54;21503;-31
2022/09/12 04:11:05;;;;;;;8.00;7.15;;;25.30;60.40;;;;;;4798915;54;21491;-26
2022/09/12 04:16:07;;;;;;;8.10;7.15;;;25.30;60.40;;;;;;4795416;58;21071;-34
2022/09/12 04:21:12;;;;;;;8.30;7.22;;;25.20;60.20;;;;;;4795104;58;21031;-35
2022/09/12 04:26:13;;;;;;;9.68;7.60;;;25.30;60.40;;;;;;4795742;58;21079;-36
2022/09/12 04:31:17;;;;;;;10.88;7.87;;;25.20;60.30;;;;;;4795893;55;21106;-37
2022/09/12 04:36:18;;;;;;;9.48;8.45;;;25.20;60.30;;;;;;4841820;54;21589;-35
2022/09/12 04:41:25;;;;;;;8.82;7.93;;;25.20;60.30;;;;;;4795136;58;21522;-34
2022/09/12 04:46:26;;;;;;;;;;;25.20;60.30;;;;;;4837108;54;21064;-35
2022/09/12 04:51:29;;;;;;;10.48;7.95;;;25.20;60.30;;;;;;4806395;54;20115;-29
2022/09/12 04:56:30;;;;;;;8.73;7.60;;;25.20;60.20;;;;;;4824362;54;21091;-37
2022/09/12 05:01:32;;;;;;;8.80;7.43;;;25.20;60.10;;;;;;4799077;54;21055;-26
2022/09/12 05:06:35;;;;;;;8.48;7.57;;;25.20;60.20;;;;;;4818410;54;21126;-35
2022/09/12 05:11:38;;;;;;;8.48;7.57;;;25.20;60.30;;;;;;4796363;54;21071;-27
2022/09/12 05:16:40;;;;;;;10.98;7.40;;;25.20;60.20;;;;;;4840489;54;21490;-32
2022/09/12 05:21:40;;;;;;;8.57;7.30;;;25.20;60.20;;;;;;4812236;54;21565;-31
2022/09/12 05:26:41;;;;;;;8.30;6.97;;;25.20;60.40;;;;;;4838126;54;21012;-36
2022/09/12 05:31:42;;;;;;;8.40;7.50;;;25.20;60.70;;;;;;4800202;54;21047;-25
2022/09/12 05:36:43;;;;;;;9.80;7.50;;;25.20;60.70;;;;;;4814029;54;21000;-25
2022/09/12 05:41:44;;;;;;;9.68;7.97;;;25.20;60.20;;;;;;4808891;54;21024;-31
2022/09/12 05:46:49;;;;;;;8.82;7.32;;;25.20;60.20;;;;;;4819811;54;21051;-26
2022/09/12 05:51:50;;;;;;;9.18;8.02;;;25.20;60.10;;;;;;4808076;54;22319;-26
2022/09/12 05:56:51;;;;;;;10.82;8.07;;;25.20;60.20;;;;;;4851250;54;22022;-28
2022/09/12 06:01:52;;;;;;;9.85;7.75;;;25.20;60.80;;;;;;4813568;54;21032;-29
2022/09/12 06:06:53;;;;;;;10.60;8.07;;;25.20;60.10;;;;;;4808234;54;21075;-33
2022/09/12 06:11:54;;;;;;;9.23;7.80;;;25.20;60.10;;;;;;4854920;54;21126;-37
2022/09/12 06:16:55;;;;;;;9.20;8.00;;;25.20;60.10;;;;;;4798665;54;22033;-30
2022/09/12 06:21:56;;;;;;;10.05;8.25;;;25.20;60.00;;;;;;4813685;54;21111;-28
2022/09/12 06:26:57;;;;;;;9.35;7.80;;;25.20;60.10;;;;;;4814496;54;21333;-37
2022/09/12 06:31:58;;;;;;;8.68;7.68;;;25.20;60.00;;;;;;4814668;54;21067;-29
2022/09/12 06:36:59;;;;;;;10.52;8.52;;;25.20;60.10;;;;;;4807806;54;21035;-26
2022/09/12 06:41:59;;;;;;;9.43;8.38;;;25.20;59.90;;;;;;4805454;54;20996;-28
2022/09/12 06:47:00;;;;;;;8.68;7.75;;;25.20;60.00;;;;;;4808633;54;20995;-33
2022/09/12 06:52:01;;;;;;;10.38;8.23;;;25.20;59.90;;;;;;4809665;54;21107;-28
2022/09/12 06:57:03;;;;;;;10.10;8.13;;;25.20;59.90;;;;;;4800775;54;21020;-28
2022/09/12 07:02:04;;;;;;;39.00;20.00;;;25.20;59.90;;;;;;4794214;58;21552;-29
2022/09/12 07:07:05;;;;;;;52.00;29.25;;;25.20;56.20;;;;;;4795661;54;21091;-30
2022/09/12 07:12:09;;;;;;;65.43;51.03;;;25.00;55.50;;;;;;4801486;54;21605;-27
2022/09/12 07:17:11;;;;;;;68.15;57.50;;;24.90;55.50;;;;;;4798827;54;22306;-31
2022/09/12 07:22:12;;;;;;;53.00;47.13;;;24.90;55.40;;;;;;4797625;54;21589;-30
2022/09/12 07:27:13;;;;;;;47.22;38.35;;;24.90;54.90;;;;;;4835562;54;20996;-29
2022/09/12 07:32:13;;;;;;;50.60;36.83;;;24.80;55.00;;;;;;4832129;54;21051;-25
2022/09/12 07:37:14;;;;;;;53.85;36.28;;;24.80;55.20;;;;;;4837342;54;21004;-36
2022/09/12 07:42:15;;;;;;;61.37;45.95;;;24.80;54.90;;;;;;4796004;55;21470;-35
2022/09/12 07:47:17;;;;;;;72.85;56.88;;;24.70;54.90;;;;;;4797475;54;21032;-34
2022/09/12 07:52:17;;;;;;;61.72;47.80;;;24.70;55.00;;;;;;4833449;54;21501;-35
2022/09/12 07:57:18;;;;;;;51.17;41.08;;;24.70;55.10;;;;;;4831285;54;21040;-34
2022/09/12 08:02:19;;;;;;;38.80;29.05;;;24.70;54.90;;;;;;4794727;58;21042;-27
2022/09/12 08:07:20;;;;;;;39.30;29.05;;;24.70;55.00;;;;;;4795678;58;21498;-36
2022/09/12 08:12:21;;;;;;;38.28;29.10;;;24.70;54.80;;;;;;4818094;54;21142;-32
2022/09/12 08:17:24;;;;;;;45.05;30.33;;;24.80;55.00;;;;;;4802195;54;21218;-36
2022/09/12 08:22:25;;;;;;;36.50;25.40;;;24.80;55.00;;;;;;4795626;58;21123;-35
2022/09/12 08:27:26;;;;;;;37.22;26.70;;;24.90;55.40;;;;;;4796942;54;21550;-29
2022/09/12 08:32:27;;;;;;;31.67;23.95;;;24.90;55.00;;;;;;4818449;54;21039;-33
2022/09/12 08:37:31;;;;;;;33.33;23.42;;;24.90;55.40;;;;;;4794808;58;20996;-27
2022/09/12 08:43:30;;;;;;;33.35;23.08;;;25.00;55.80;;;;;;4797971;54;21019;-30
2022/09/12 08:48:31;;;;;;;33.85;22.50;;;25.10;55.20;;;;;;4793516;54;21402;-33
2022/09/12 08:53:36;;;;;;;36.42;26.05;;;25.10;55.30;;;;;;4803222;54;21031;-30
2022/09/12 08:58:42;;;;;;;38.58;27.02;;;25.10;54.60;;;;;;4804114;54;21569;-33
2022/09/12 09:06:50;;;;;;;;;;;25.00;52.60;;;;;;4830215;54;20999;-35
2022/09/12 09:14:48;;;;;;;42.17;28.87;;;24.90;52.40;;;;;;4794743;54;20115;-34
2022/09/12 09:20:04;;;;;;;38.05;27.98;;;24.90;52.50;;;;;;4795632;56;21588;-28
2022/09/12 09:26:38;;;;;;;33.35;25.10;;;25.00;52.50;;;;;;4821159;54;21486;-31
2022/09/12 09:31:39;;;;;;;31.83;23.90;;;24.90;52.20;;;;;;4815197;54;21045;-35
2022/09/12 09:38:21;;;;;;;35.00;25.80;;;24.90;51.80;;;;;;4796102;54;21139;-33
2022/09/12 09:43:27;;;;;;;60.08;40.20;;;24.90;51.90;;;;;;4871487;54;21043;-25
2022/09/12 09:48:34;;;;;;;92.07;60.28;;;24.90;51.90;;;;;;4819716;54;21012;-35
2022/09/12 09:53:50;;;;;;;101.55;64.68;;;24.90;52.00;;;;;;4858817;54;21071;-25
2022/09/12 09:58:51;;;;;;;90.65;56.15;;;24.90;51.90;;;;;;4802561;54;21210;-32
2022/09/12 10:03:54;;;;;;;73.78;47.08;;;24.90;51.40;;;;;;4795866;58;21542;-33
2022/09/12 10:09:23;;;;;;;74.55;46.75;;;24.90;51.60;;;;;;4794879;58;21016;-33
2022/09/12 10:14:37;;;;;;;59.63;41.37;;;24.90;51.50;;;;;;4805815;54;21055;-26
2022/09/12 10:19:39;;;;;;;46.67;32.20;;;24.90;51.40;;;;;;4808161;54;21502;-28
2022/09/12 10:24:42;;;;;;;54.53;35.40;;;24.90;51.20;;;;;;4807864;54;21075;-33
2022/09/12 10:30:27;;;;;;;42.58;28.48;;;24.90;51.30;;;;;;4807682;54;21534;-35
2022/09/12 10:35:32;;;;;;;40.30;28.50;;;24.90;51.20;;;;;;4798302;54;22022;-31
2022/09/12 10:40:39;;;;;;;43.70;28.40;;;25.00;51.50;;;;;;4802818;54;21517;-30
2022/09/12 10:45:40;;;;;;;40.53;27.33;;;25.00;51.30;;;;;;4795422;58;21510;-26
2022/09/12 10:50:42;;;;;;;40.30;28.80;;;25.10;51.60;;;;;;4796885;54;22228;-36
2022/09/12 10:56:09;;;;;;;42.83;28.75;;;25.10;51.50;;;;;;4816905;54;21111;-38
2022/09/12 11:04:26;;;;;;;35.25;26.70;;;25.10;51.20;;;;;;4818191;54;21044;-32
2022/09/12 11:14:43;;;;;;;30.95;24.30;;;25.10;51.10;;;;;;4831855;54;21075;-30
2022/09/12 11:23:11;;;;;;;40.83;27.52;;;25.10;50.70;;;;;;4803504;54;21494;-32
2022/09/12 11:28:38;;;;;;;45.12;34.00;;;25.10;50.10;;;;;;4847169;54;21083;-36
2022/09/12 11:33:49;;;;;;;44.05;33.00;;;25.20;49.90;;;;;;4796830;54;21092;-31
2022/09/12 11:39:18;;;;;;;38.78;30.35;;;25.10;49.60;;;;;;4809844;54;20991;-29
2022/09/12 11:44:32;;;;;;;38.00;29.17;;;25.10;48.60;;;;;;4795419;58;21012;-35
2022/09/12 11:49:49;;;;;;;36.65;27.23;;;25.10;48.00;;;;;;4850080;54;21059;-28
2022/09/12 11:55:18;;;;;;;39.03;30.67;;;25.20;49.00;;;;;;4799024;54;21036;-28
2022/09/12 12:00:46;;;;;;;41.28;33.08;;;25.20;49.40;;;;;;4800874;54;21032;-31
2022/09/12 12:06:04;;;;;;;50.58;38.03;;;25.20;48.80;;;;;;4817455;54;21158;-29
2022/09/12 12:11:09;;;;;;;39.35;30.40;;;25.20;48.60;;;;;;4814145;54;21371;-33
2022/09/12 12:16:30;;;;;;;36.83;28.50;;;25.20;48.70;;;;;;4822953;54;21032;-28
2022/09/12 12:21:42;;;;;;;33.10;25.80;;;25.20;47.90;;;;;;4801887;54;21082;-30
2022/09/12 12:27:26;;;;;;;26.58;22.30;;;25.20;48.20;;;;;;4807534;54;21457;-31
2022/09/12 12:32:26;;;;;;;28.87;23.02;;;25.20;47.90;;;;;;4837420;54;21071;-35
2022/09/12 12:37:50;;;;;;;40.67;30.23;;;25.20;48.50;;;;;;4821862;54;20992;-32
2022/09/12 12:43:03;;;;;;;49.25;38.47;;;25.30;48.60;;;;;;4804299;54;21645;-26
2022/09/12 12:48:15;;;;;;;46.58;33.40;;;25.30;48.00;;;;;;4814858;54;21962;-29
2022/09/12 12:53:23;;;;;;;42.03;30.37;;;25.30;47.70;;;;;;4820136;54;21103;-33
2022/09/12 12:58:32;;;;;;;38.92;30.70;;;25.30;47.90;;;;;;4829914;54;21146;-28
2022/09/12 13:03:37;;;;;;;39.90;30.50;;;25.30;48.30;;;;;;4826427;54;21055;-32
2022/09/12 13:08:42;;;;;;;39.13;28.08;;;25.30;47.70;;;;;;4797171;54;21550;-34
2022/09/12 13:14:02;;;;;;;32.45;24.87;;;25.30;47.50;;;;;;4794391;58;21083;-33
2022/09/12 13:19:13;;;;;;;35.67;25.90;;;25.30;48.30;;;;;;4797843;54;21506;-34
2022/09/12 13:24:15;;;;;;;33.20;26.55;;;25.40;47.80;;;;;;4796517;54;21019;-27
2022/09/12 13:29:22;;;;;;;35.80;26.42;;;25.40;48.10;;;;;;4807732;54;22072;-31
2022/09/12 13:35:15;;;;;;;28.90;23.53;;;25.40;47.20;;;;;;4856415;54;21052;-35
2022/09/12 13:44:12;;;;;;;32.90;26.65;;;25.30;46.40;;;;;;4850367;54;21849;-25
2022/09/12 13:49:21;;;;;;;28.27;23.48;;;25.30;46.50;;;;;;4795378;58;21016;-31
2022/09/12 13:54:22;;;;;;;34.67;26.33;;;25.30;47.30;;;;;;4796695;54;21011;-32
2022/09/12 13:59:23;;;;;;;35.90;29.15;;;25.40;46.80;;;;;;4823532;54;21072;-31
2022/09/12 14:09:54;;;;;;;29.58;22.52;;;25.30;45.80;;;;;;4795026;54;21071;-28
2022/09/12 14:14:56;;;;;;;32.20;23.60;;;25.30;46.50;;;;;;4802157;54;21012;-31
2022/09/12 14:20:04;;;;;;;37.65;28.20;;;25.40;47.20;;;;;;4816723;54;21027;-36
2022/09/12 14:25:09;;;;;;;43.45;32.00;;;25.40;47.70;;;;;;4823577;54;21040;-29
2022/09/12 14:30:31;;;;;;;43.97;33.05;;;25.40;47.40;;;;;;4800820;54;21557;-33
2022/09/12 14:35:32;;;;;;;43.45;32.08;;;25.40;47.30;;;;;;4798011;54;20992;-33
2022/09/12 14:40:41;;;;;;;47.47;31.95;;;25.30;47.40;;;;;;4798170;54;21012;-33
2022/09/12 14:45:42;;;;;;;44.30;31.98;;;25.30;47.60;;;;;;4794119;58;21520;-41
2022/09/12 14:50:47;;;;;;;43.42;31.37;;;25.30;47.90;;;;;;4804033;54;21095;-31
2022/09/12 14:55:56;;;;;;;41.55;30.75;;;25.30;48.10;;;;;;4797628;54;21074;-32
2022/09/12 15:05:29;;;;;;;40.25;29.60;;;25.30;48.20;;;;;;4832264;54;21098;-33
2022/09/12 15:10:35;;;;;;;38.92;29.42;;;25.30;48.50;;;;;;4799500;54;21245;-30
2022/09/12 15:15:37;;;;;;;37.85;27.98;;;25.30;48.80;;;;;;4798514;54;21055;-28
2022/09/12 15:20:40;;;;;;;38.13;27.90;;;25.20;48.30;;;;;;4795666;58;21004;-26
2022/09/12 15:25:41;;;;;;;36.35;28.17;;;25.20;49.10;;;;;;4820259;54;20991;-27
2022/09/12 15:30:42;;;;;;;40.33;28.42;;;25.20;49.10;;;;;;4804147;54;21497;-31
2022/09/12 15:35:46;;;;;;;38.47;28.35;;;25.20;49.40;;;;;;4803662;54;21027;-26
2022/09/12 15:40:52;;;;;;;34.60;27.30;;;25.20;49.50;;;;;;4807732;54;21019;-33
2022/09/12 15:45:53;;;;;;;37.75;28.45;;;25.20;49.50;;;;;;4842769;54;21528;-30
2022/09/12 15:50:56;;;;;;;38.22;27.40;;;25.20;49.70;;;;;;4835137;54;21134;-38
2022/09/12 15:55:57;;;;;;;35.58;28.25;;;25.20;49.80;;;;;;4793897;58;21585;-32
2022/09/12 16:00:58;;;;;;;34.20;27.17;;;25.20;50.00;;;;;;4799812;54;21015;-34
2022/09/12 16:06:01;;;;;;;34.17;25.83;;;25.20;50.10;;;;;;4810161;54;21683;-30
2022/09/12 16:11:06;;;;;;;32.35;25.83;;;25.20;50.10;;;;;;4807534;54;21175;-29
2022/09/12 16:16:10;;;;;;;33.47;25.75;;;25.20;50.20;;;;;;4817542;54;21071;-31
2022/09/12 16:21:12;;;;;;;32.08;25.52;;;25.20;50.40;;;;;;4808321;54;21572;-32
2022/09/12 16:26:13;;;;;;;31.15;24.85;;;25.20;50.50;;;;;;4797669;54;21063;-30
2022/09/12 16:31:14;;;;;;;32.65;25.70;;;25.20;50.60;;;;;;4795469;58;21004;-29
2022/09/12 16:36:18;;;;;;;35.38;26.00;;;25.20;50.60;;;;;;4795038;54;21063;-31
2022/09/12 16:41:21;;;;;;;36.58;25.92;;;25.20;50.70;;;;;;4828197;54;21075;-25
2022/09/12 16:46:25;;;;;;;32.40;25.27;;;25.20;50.80;;;;;;4795351;58;21071;-27
2022/09/12 16:51:29;;;;;;;33.25;24.85;;;25.20;50.90;;;;;;4795312;58;21019;-27
2022/09/12 16:56:30;;;;;;;32.28;25.02;;;25.20;50.90;;;;;;4794312;58;21028;-24
2022/09/12 17:01:33;;;;;;;32.78;24.67;;;25.20;51.00;;;;;;4803939;54;21128;-35
2022/09/12 17:06:34;;;;;;;29.23;22.37;;;25.20;51.20;;;;;;4826251;54;21537;-33
2022/09/12 17:11:37;;;;;;;29.75;23.75;;;25.20;51.30;;;;;;4795530;58;20992;-30
2022/09/12 17:16:41;;;;;;;29.48;23.02;;;25.20;51.30;;;;;;4816424;54;21016;-30
2022/09/12 17:21:44;;;;;;;29.85;24.08;;;25.20;51.40;;;;;;4810341;54;21003;-37
2022/09/12 17:26:45;;;;;;;28.33;23.38;;;25.20;51.40;;;;;;4798428;54;22204;-26
2022/09/12 17:31:46;;;;;;;27.73;23.20;;;25.20;51.50;;;;;;4818344;54;21075;-30
2022/09/12 17:36:47;;;;;;;30.92;23.20;;;25.20;51.60;;;;;;4805611;54;21051;-31
2022/09/12 17:41:50;;;;;;;28.90;22.73;;;25.20;51.80;;;;;;4799337;54;21007;-25
2022/09/12 17:46:51;;;;;;;28.12;22.75;;;25.20;51.80;;;;;;4812220;54;21047;-27
2022/09/12 17:51:54;;;;;;;28.73;22.65;;;25.20;51.90;;;;;;4820819;54;21024;-36
2022/09/12 17:56:55;;;;;;;29.05;21.90;;;25.10;51.90;;;;;;4812757;54;22131;-37
2022/09/12 18:02:11;;;;;;;26.50;20.77;;;25.10;52.00;;;;;;4798508;54;22064;-31
2022/09/12 18:07:13;;;;;;;26.37;21.53;;;25.10;52.20;;;;;;4814904;54;21087;-26
2022/09/12 18:12:15;;;;;;;25.65;20.05;;;25.20;52.20;;;;;;4841951;54;22091;-31
2022/09/12 18:17:15;;;;;;;27.45;21.55;;;25.10;52.30;;;;;;4807562;54;21106;-27
2022/09/12 18:22:16;;;;;;;26.35;21.08;;;25.20;52.30;;;;;;4818443;54;21099;-26
2022/09/12 18:27:17;;;;;;;25.37;19.85;;;25.20;52.40;;;;;;4807216;54;21802;-35
2022/09/12 18:32:18;;;;;;;26.95;20.75;;;25.10;52.50;;;;;;4795363;55;21450;-38
2022/09/12 18:37:19;;;;;;;28.50;20.08;;;25.10;52.60;;;;;;4810497;54;21032;-26
2022/09/12 18:42:20;;;;;;;26.17;20.77;;;25.10;52.60;;;;;;4815288;54;21008;-36
2022/09/12 18:47:22;;;;;;;27.83;20.33;;;25.10;52.70;;;;;;4811439;54;21012;-27
2022/09/12 18:52:23;;;;;;;23.52;19.52;;;25.10;52.70;;;;;;4800729;54;22159;-28
2022/09/12 18:57:24;;;;;;;27.40;19.52;;;25.20;52.90;;;;;;4814174;54;21055;-33
2022/09/12 19:02:27;;;;;;;22.17;18.10;;;25.10;52.80;;;;;;4809624;54;22097;-30
2022/09/12 19:07:28;;;;;;;22.48;18.15;;;25.10;52.90;;;;;;4810796;54;21518;-37
2022/09/12 19:12:29;;;;;;;23.10;18.83;;;25.10;52.90;;;;;;4803469;54;21075;-28
2022/09/12 19:17:29;;;;;;;24.67;18.33;;;25.10;53.00;;;;;;4810370;54;21012;-36
2022/09/12 19:22:31;;;;;;;23.92;18.02;;;25.10;53.00;;;;;;4811686;54;21087;-35
2022/09/12 19:27:32;;;;;;;23.62;17.67;;;25.10;53.00;;;;;;4821274;54;21585;-37
2022/09/12 19:32:32;;;;;;;21.15;17.73;;;25.10;53.70;;;;;;4796200;58;21106;-27
2022/09/12 19:37:33;;;;;;;23.33;17.00;;;25.10;53.30;;;;;;4812747;54;21039;-36
2022/09/12 19:42:34;;;;;;;19.45;16.17;;;25.10;53.20;;;;;;4796194;58;21031;-29
2022/09/12 19:47:35;;;;;;;21.58;16.45;;;25.10;53.20;;;;;;4795529;55;21431;-30
2022/09/12 19:52:35;;;;;;;20.08;16.73;;;25.10;53.30;;;;;;4795385;58;21043;-31
2022/09/12 19:57:36;;;;;;;20.30;16.27;;;25.10;53.30;;;;;;4834805;54;21095;-26
2022/09/12 20:02:37;;;;;;;19.80;16.10;;;25.10;53.50;;;;;;4817248;54;21007;-27
2022/09/12 20:07:38;;;;;;;17.80;15.25;;;25.10;53.50;;;;;;4800466;54;21008;-32
2022/09/12 20:12:39;;;;;;;19.50;15.70;;;25.10;53.50;;;;;;4798005;54;21568;-39
2022/09/12 20:17:40;;;;;;;17.75;14.45;;;25.10;53.50;;;;;;4796140;58;21000;-36
2022/09/12 20:22:41;;;;;;;18.35;15.00;;;25.10;53.50;;;;;;4815660;54;21485;-25
2022/09/12 20:27:42;;;;;;;18.92;14.87;;;25.10;53.70;;;;;;4796024;58;21581;-34
2022/09/12 20:32:43;;;;;;;17.02;14.02;;;25.10;53.50;;;;;;4827569;54;21095;-27
2022/09/12 20:37:44;;;;;;;16.33;14.07;;;25.10;53.70;;;;;;4819219;54;20992;-25
2022/09/12 20:42:48;;;;;;;17.90;14.30;;;25.00;54.20;;;;;;4795819;58;21004;-26
2022/09/12 20:47:49;;;;;;;17.90;14.40;;;25.00;53.70;;;;;;4806225;54;21043;-28
2022/09/12 20:52:49;;;;;;;21.40;14.90;;;25.00;53.60;;;;;;4795021;55;21122;-29
2022/09/12 20:57:50;;;;;;;14.90;13.18;;;25.00;53.60;;;;;;4814359;54;21071;-33
2022/09/12 21:02:51;;;;;;;14.52;13.02;;;25.00;53.70;;;;;;4796057;58;22026;-35
2022/09/12 21:07:52;;;;;;;17.17;13.30;;;25.10;53.70;;;;;;4795474;58;21082;-32
2022/09/12 21:12:53;;;;;;;16.58;12.85;;;25.00;53.70;;;;;;4795493;55;21008;-29
2022/09/12 21:17:54;;;;;;;15.82;12.45;;;25.00;53.70;;;;;;4795596;58;21489;-35
2022/09/12 21:22:54;;;;;;;14.85;12.60;;;25.00;53.80;;;;;;4816326;54;20992;-33
2022/09/12 21:27:55;;;;;;;14.38;12.07;;;25.00;53.80;;;;;;4816336;54;21004;-26
2022/09/12 21:32:56;;;;;;;15.77;12.73;;;25.00;53.80;;;;;;4842815;54;21087;-31
2022/09/12 21:38:00;;;;;;;14.93;11.70;;;25.00;53.90;;;;;;4817770;54;21008;-28
2022/09/12 21:43:01;;;;;;;13.55;12.07;;;25.00;53.80;;;;;;4813504;54;21086;-35
2022/09/12 21:48:02;;;;;;;13.10;11.30;;;25.00;53.80;;;;;;4795535;58;21510;-28
2022/09/12 21:53:03;;;;;;;13.50;11.80;;;25.00;54.00;;;;;;4857504;54;22098;-33
2022/09/12 21:58:04;;;;;;;12.48;11.10;;;25.00;53.90;;;;;;4817909;54;21068;-31
2022/09/12 22:03:05;;;;;;;13.88;11.20;;;25.00;54.00;;;;;;4804419;54;21050;-36
2022/09/12 22:08:08;;;;;;;12.55;11.23;;;25.00;54.20;;;;;;4805943;54;21039;-35
2022/09/12 22:13:09;;;;;;;13.80;11.45;;;25.00;54.00;;;;;;4795557;54;21517;-35
2022/09/12 22:18:10;;;;;;;12.32;10.73;;;25.00;54.20;;;;;;4810880;54;21517;-24
2022/09/12 22:28:31;;;;;;;12.85;10.88;;;25.00;54.10;;;;;;4795949;54;21020;-30
2022/09/12 22:33:32;;;;;;;12.57;10.05;;;25.00;54.20;;;;;;4804635;54;21546;-31
2022/09/12 22:38:33;;;;;;;12.20;10.35;;;25.00;54.20;;;;;;4801726;54;21577;-36
2022/09/12 22:43:34;;;;;;;11.57;10.20;;;25.00;54.30;;;;;;4798969;54;21007;-39
2022/09/12 22:48:36;;;;;;;13.02;10.80;;;25.00;54.30;;;;;;4840392;54;20988;-36
2022/09/12 22:53:37;;;;;;;13.02;10.25;;;25.00;54.30;;;;;;4795464;58;21482;-36
2022/09/12 22:58:41;;;;;;;11.80;10.15;;;25.00;54.50;;;;;;4856754;54;21036;-32
2022/09/12 23:03:41;;;;;;;11.52;10.32;;;25.00;54.40;;;;;;4801050;54;21012;-31
2022/09/12 23:08:42;;;;;;;11.63;10.15;;;25.00;54.50;;;;;;4829325;54;21075;-31
2022/09/12 23:13:45;;;;;;;11.43;9.77;;;25.00;54.50;;;;;;4800496;54;21063;-27
2022/09/12 23:18:47;;;;;;;11.80;9.73;;;25.00;54.50;;;;;;4814890;54;21067;-34
2022/09/12 23:23:48;;;;;;;11.30;9.43;;;25.00;54.40;;;;;;4795784;58;21055;-34
2022/09/12 23:28:54;;;;;;;11.68;9.60;;;25.00;54.50;;;;;;4821786;54;21005;-32
2022/09/12 23:33:56;;;;;;;11.73;9.68;;;25.00;54.50;;;;;;4806457;54;21067;-30
2022/09/12 23:38:57;;;;;;;10.93;9.63;;;25.00;54.60;;;;;;4809089;54;21106;-34
2022/09/12 23:43:58;;;;;;;11.15;9.23;;;25.00;54.70;;;;;;4795901;54;20987;-27
2022/09/12 23:48:59;;;;;;;10.82;9.50;;;25.00;54.60;;;;;;4804916;54;21474;-27
2022/09/12 23:53:59;;;;;;;10.43;8.88;;;24.90;54.70;;;;;;4822356;54;21095;-30
2022/09/12 23:59:00;;;;;;;10.25;9.13;;;25.00;54.70;;;;;;4798025;54;21031;-26
